Time;durP1;ratioP1;P1;durP2;ratioP2;P2;SDS_P1;SDS_P2;PMS_P1;PMS_P2;Temp;Humidity;BMP_temperature;BMP_pressure;BME280_temperature;BME280_humidity;BME280_pressure;Samples;Min_cycle;Max_cycle;Signal;HPM_P1;HPM_P2
2022/11/09 00:07:21;;;;;;;1999.90;999.90;;;14.80;99.90;;;;;;6768000;87;20246;-78
2022/11/09 00:17:22;;;;;;;1999.90;999.90;;;15.00;99.90;;;;;;6764446;87;20270;-79
2022/11/09 00:27:23;;;;;;;1999.90;999.90;;;15.10;99.90;;;;;;6712327;76;20653;-78
2022/11/09 00:37:23;;;;;;;1999.90;999.90;;;15.20;99.90;;;;;;6651357;89;20246;-78
2022/11/09 00:47:24;;;;;;;1999.90;999.90;;;15.20;99.90;;;;;;6645496;89;20696;-77
2022/11/09 00:57:24;;;;;;;1999.90;999.90;;;15.20;99.90;;;;;;6647218;89;20199;-77
2022/11/09 01:07:25;;;;;;;1999.90;999.90;;;15.20;99.90;;;;;;6648672;88;20214;-77
2022/11/09 01:17:26;;;;;;;1999.90;999.90;;;15.10;99.90;;;;;;6649481;88;20188;-78
2022/11/09 01:27:26;;;;;;;1999.90;999.90;;;15.00;99.90;;;;;;6650032;88;20210;-77
2022/11/09 01:37:27;;;;;;;1999.90;999.90;;;14.90;99.90;;;;;;6653403;88;20513;-77
2022/11/09 01:47:27;;;;;;;1999.90;999.90;;;14.90;99.90;;;;;;6638159;89;20242;-77
2022/11/09 01:57:34;;;;;;;1999.90;999.90;;;14.80;99.90;;;;;;6656294;89;20238;-78
2022/11/09 02:07:37;;;;;;;1999.90;999.90;;;14.70;99.90;;;;;;6659056;88;20238;-77
2022/11/09 02:17:40;;;;;;;1999.90;999.90;;;14.60;99.90;;;;;;6665898;88;20181;-77
2022/11/09 02:27:42;;;;;;;1999.90;999.90;;;14.60;99.90;;;;;;6707338;88;20208;-77
2022/11/09 02:37:49;;;;;;;1999.90;999.90;;;14.50;99.90;;;;;;6693307;88;20622;-78
2022/11/09 02:47:50;;;;;;;1999.90;999.90;;;14.50;99.90;;;;;;6655466;89;20211;-78
2022/11/09 02:57:50;;;;;;;1999.90;999.90;;;14.50;99.90;;;;;;6660423;89;20303;-77
2022/11/09 03:07:51;;;;;;;1999.90;999.90;;;14.40;99.90;;;;;;6648660;89;20796;-77
2022/11/09 03:17:52;;;;;;;1999.90;999.90;;;14.50;99.90;;;;;;6642847;89;20263;-77
2022/11/09 03:28:00;;;;;;;1999.90;999.90;;;14.50;99.90;;;;;;6648697;89;20195;-77
2022/11/09 03:38:00;;;;;;;1999.90;999.90;;;14.70;99.90;;;;;;6648975;89;20261;-77
2022/11/09 03:48:01;;;;;;;1999.90;999.90;;;14.80;99.90;;;;;;6658579;89;20562;-77
2022/11/09 03:58:03;;;;;;;1999.90;999.90;;;14.80;99.90;;;;;;6648799;89;21058;-77
2022/11/09 04:08:04;;;;;;;1999.90;999.90;;;14.80;99.90;;;;;;6647958;89;20559;-77
2022/11/09 04:18:04;;;;;;;1999.90;999.90;;;14.90;99.90;;;;;;6647706;89;20610;-78
2022/11/09 04:28:06;;;;;;;1999.90;999.90;;;14.90;99.90;;;;;;6647830;89;20295;-78
2022/11/09 04:38:11;;;;;;;1999.90;999.90;;;14.90;99.90;;;;;;6646764;89;20275;-77
2022/11/09 04:48:11;;;;;;;1999.90;999.90;;;14.90;99.90;;;;;;6647700;89;20255;-77
2022/11/09 04:58:13;;;;;;;1999.90;999.90;;;14.70;99.90;;;;;;6643703;89;20709;-77
2022/11/09 05:08:13;;;;;;;1999.90;999.90;;;14.60;99.90;;;;;;6643138;89;20656;-77
2022/11/09 05:18:14;;;;;;;1999.90;999.90;;;14.50;99.90;;;;;;6646804;89;20294;-77
2022/11/09 05:28:14;;;;;;;1999.90;999.90;;;14.50;99.90;;;;;;6648063;89;20245;-78
2022/11/09 05:38:15;;;;;;;1999.90;999.90;;;14.40;99.90;;;;;;6643344;89;20278;-78
2022/11/09 05:48:16;;;;;;;1999.90;999.90;;;14.40;99.90;;;;;;6646524;89;20213;-78
2022/11/09 05:58:17;;;;;;;1999.90;999.90;;;14.30;99.90;;;;;;6645711;89;20191;-78
2022/11/09 06:08:17;;;;;;;1999.90;999.90;;;14.40;99.90;;;;;;6646646;89;20259;-78
2022/11/09 06:18:18;;;;;;;1999.90;999.90;;;14.30;99.90;;;;;;6644233;89;20243;-79
2022/11/09 06:28:19;;;;;;;1999.90;999.90;;;14.30;99.90;;;;;;6682425;77;20188;-76
2022/11/09 06:38:20;;;;;;;1999.90;999.90;;;14.20;99.90;;;;;;6736576;88;20187;-77
2022/11/09 06:48:21;;;;;;;1999.90;999.90;;;14.00;99.90;;;;;;6731979;88;20666;-79
2022/11/09 06:58:21;;;;;;;1999.90;999.90;;;13.90;99.90;;;;;;6733209;88;20189;-77
2022/11/09 07:08:22;;;;;;;1999.90;999.90;;;13.70;99.90;;;;;;6736643;88;20184;-77
2022/11/09 07:18:22;;;;;;;1999.90;999.90;;;13.70;99.90;;;;;;6738531;88;20214;-76
2022/11/09 07:28:23;;;;;;;1999.90;999.90;;;13.80;99.90;;;;;;6719250;88;20245;-78
2022/11/09 07:38:24;;;;;;;1999.90;999.90;;;13.90;99.90;;;;;;6738078;88;20604;-79
2022/11/09 07:48:24;;;;;;;1999.90;999.90;;;14.10;99.90;;;;;;6720012;88;20196;-78
2022/11/09 07:58:25;;;;;;;1999.90;999.90;;;14.30;99.90;;;;;;6737467;88;20195;-78
2022/11/09 08:08:25;;;;;;;1999.90;999.90;;;14.60;99.90;;;;;;6737376;88;20211;-77
2022/11/09 08:18:26;;;;;;;1999.90;999.90;;;14.90;99.90;;;;;;6688389;88;20202;-77
2022/11/09 08:28:26;;;;;;;1999.90;999.90;;;15.40;99.90;;;;;;6664555;88;20247;-77
2022/11/09 08:38:27;;;;;;;1999.90;999.90;;;15.50;99.90;;;;;;6663486;88;20690;-78
2022/11/09 08:48:27;;;;;;;1999.90;999.90;;;15.70;99.90;;;;;;6667199;88;20621;-79
2022/11/09 08:58:28;;;;;;;1999.90;999.90;;;16.30;99.90;;;;;;6667231;88;20190;-78
2022/11/09 09:08:29;;;;;;;1999.90;999.90;;;16.50;99.90;;;;;;6666608;88;20321;-78
2022/11/09 09:18:29;;;;;;;1999.90;999.90;;;16.70;99.90;;;;;;6663744;88;20316;-78
2022/11/09 09:28:30;;;;;;;1999.90;999.90;;;17.10;99.90;;;;;;6665287;88;20198;-78
2022/11/09 09:38:30;;;;;;;1999.90;999.90;;;17.10;99.90;;;;;;6665749;88;20333;-77
2022/11/09 09:48:41;;;;;;;1999.90;999.90;;;17.00;99.90;;;;;;6665946;88;20224;-78
2022/11/09 09:58:48;;;;;;;1999.90;999.90;;;16.80;99.90;;;;;;6648738;88;20376;-77
2022/11/09 10:09:02;;;;;;;1999.90;999.90;;;16.80;99.90;;;;;;6648514;88;20217;-77
2022/11/09 10:19:34;;;;;;;1999.90;999.90;;;17.20;99.90;;;;;;6648919;89;20189;-77
2022/11/09 10:29:40;;;;;;;1999.90;999.90;;;17.70;99.90;;;;;;6646693;88;20497;-79
2022/11/09 10:39:55;;;;;;;1999.90;999.90;;;17.20;99.90;;;;;;6648907;88;20193;-77
2022/11/09 10:50:21;;;;;;;1999.90;999.90;;;16.80;99.90;;;;;;6650739;89;20188;-77
2022/11/09 11:00:22;;;;;;;1999.90;999.90;;;16.70;99.90;;;;;;6651137;89;20604;-78
2022/11/09 11:10:23;;;;;;;1999.90;999.90;;;16.70;99.90;;;;;;6650509;88;20235;-78
2022/11/09 11:20:35;;;;;;;1999.90;999.90;;;16.70;99.90;;;;;;6650173;89;20196;-78
2022/11/09 11:30:38;;;;;;;1999.90;999.90;;;16.50;99.90;;;;;;6652844;88;20208;-78
2022/11/09 11:40:49;;;;;;;1999.90;999.90;;;16.50;99.90;;;;;;6650677;89;20613;-78
2022/11/09 11:51:09;;;;;;;1999.90;999.90;;;16.60;99.90;;;;;;6646581;88;20238;-78
2022/11/09 12:01:31;;;;;;;1999.90;999.90;;;16.70;99.90;;;;;;6648454;88;20689;-78
2022/11/09 12:11:55;;;;;;;1999.90;999.90;;;16.70;99.90;;;;;;6651593;88;20677;-78
2022/11/09 12:22:25;;;;;;;1999.90;999.90;;;16.70;99.90;;;;;;6650789;89;20183;-78
2022/11/09 12:32:35;;;;;;;1999.90;999.90;;;16.50;99.90;;;;;;6693493;77;20169;-79
2022/11/09 12:42:42;;;;;;;1999.90;999.90;;;16.60;99.90;;;;;;6734987;88;20658;-79
2022/11/09 12:52:46;;;;;;;1999.90;999.90;;;16.60;99.90;;;;;;6739383;88;20329;-78
2022/11/09 13:02:55;;;;;;;1999.90;999.90;;;16.70;99.90;;;;;;6731758;88;20619;-77
2022/11/09 13:13:11;;;;;;;1999.90;999.90;;;17.00;99.90;;;;;;6727792;88;20291;-79
2022/11/09 13:23:23;;;;;;;;;;;17.20;99.90;;;;;;6736803;88;20182;-77
2022/11/09 13:33:27;;;;;;;1999.90;999.90;;;17.90;99.90;;;;;;6733484;88;20062;-77
2022/11/09 13:43:35;;;;;;;1999.90;999.90;;;17.40;99.90;;;;;;6736557;88;20689;-77
2022/11/09 13:53:35;;;;;;;1999.90;999.90;;;17.70;99.90;;;;;;6733641;87;20210;-77
2022/11/09 14:03:36;;;;;;;1999.90;999.90;;;17.50;99.90;;;;;;6736250;88;20204;-78
2022/11/09 14:13:46;;;;;;;1999.90;999.90;;;17.30;99.90;;;;;;6735901;88;20272;-78
2022/11/09 14:23:47;;;;;;;1999.90;999.90;;;16.80;99.90;;;;;;6744597;87;20692;-77
2022/11/09 14:34:02;;;;;;;1999.90;999.90;;;16.70;99.90;;;;;;6730842;88;20387;-78
2022/11/09 14:44:02;;;;;;;1999.90;999.90;;;16.90;99.90;;;;;;6740743;87;20247;-78
2022/11/09 14:54:10;;;;;;;1999.90;999.90;;;16.80;99.90;;;;;;6741618;88;20187;-78
2022/11/09 15:04:15;;;;;;;1999.90;999.90;;;16.40;99.90;;;;;;6741600;88;20357;-77
2022/11/09 15:14:16;;;;;;;1999.90;999.90;;;16.30;99.90;;;;;;6745246;87;20185;-78
2022/11/09 15:24:18;;;;;;;1999.90;999.90;;;16.20;99.90;;;;;;6732834;88;20226;-77
2022/11/09 15:34:25;;;;;;;1999.90;999.90;;;16.00;99.90;;;;;;6739033;88;20209;-77
2022/11/09 15:44:26;;;;;;;1999.90;999.90;;;15.90;99.90;;;;;;6735656;88;20202;-78
2022/11/09 15:54:26;;;;;;;1999.90;999.90;;;15.60;99.90;;;;;;6737514;88;20235;-77
2022/11/09 16:04:27;;;;;;;1999.90;999.90;;;15.40;99.90;;;;;;6736000;88;20578;-78
2022/11/09 16:14:30;;;;;;;1999.90;999.90;;;15.10;99.90;;;;;;6733946;88;20192;-77
2022/11/09 16:24:31;;;;;;;1999.90;999.90;;;14.90;99.90;;;;;;6733307;88;20242;-78
2022/11/09 16:34:32;;;;;;;1999.90;999.90;;;14.60;99.90;;;;;;6733909;88;20193;-77
2022/11/09 16:44:35;;;;;;;1999.90;999.90;;;14.40;99.90;;;;;;6733382;88;20656;-79
2022/11/09 16:54:35;;;;;;;1999.90;999.90;;;14.30;99.90;;;;;;6735526;88;20843;-77
2022/11/09 17:04:36;;;;;;;1999.90;999.90;;;14.10;99.90;;;;;;6734407;88;20197;-78
2022/11/09 17:14:36;;;;;;;1999.90;999.90;;;13.90;99.90;;;;;;6729440;88;20337;-78
2022/11/09 17:24:37;;;;;;;1999.90;999.90;;;13.90;99.90;;;;;;6734931;88;20217;-78
2022/11/09 17:34:38;;;;;;;1999.90;999.90;;;13.70;99.90;;;;;;6736828;88;20359;-76
2022/11/09 17:44:38;;;;;;;1999.90;999.90;;;13.70;99.90;;;;;;6733804;88;20701;-77
2022/11/09 17:54:39;;;;;;;1999.90;999.90;;;13.50;99.90;;;;;;6735030;88;20583;-78
2022/11/09 18:04:39;;;;;;;1999.90;999.90;;;13.40;99.90;;;;;;6735775;88;20731;-77
2022/11/09 18:14:40;;;;;;;1999.90;999.90;;;13.50;99.90;;;;;;6733720;88;20208;-79
2022/11/09 18:24:41;;;;;;;1999.90;999.90;;;13.40;99.90;;;;;;6739121;88;20213;-76
2022/11/09 18:34:41;;;;;;;1999.90;999.90;;;13.50;99.90;;;;;;6744714;88;20241;-79
2022/11/09 18:44:42;;;;;;;1999.90;999.90;;;13.50;99.90;;;;;;6749534;87;20766;-80
2022/11/09 18:54:42;;;;;;;1999.90;999.90;;;13.50;99.90;;;;;;6742175;88;20194;-80
2022/11/09 19:04:43;;;;;;;1999.90;999.90;;;13.50;99.90;;;;;;6747404;88;20330;-80
2022/11/09 19:14:44;;;;;;;1999.90;999.90;;;13.20;99.90;;;;;;6744518;88;20680;-78
2022/11/09 19:24:45;;;;;;;1999.90;999.90;;;13.00;99.90;;;;;;6749397;88;20200;-79
2022/11/09 19:34:45;;;;;;;1999.90;999.90;;;13.00;99.90;;;;;;6722051;88;20316;-79
2022/11/09 19:44:46;;;;;;;1999.90;999.90;;;13.00;99.90;;;;;;6723011;88;20584;-79
2022/11/09 19:54:46;;;;;;;1999.90;999.90;;;13.00;99.90;;;;;;6722898;88;20208;-79
2022/11/09 20:04:49;;;;;;;1999.90;999.90;;;12.70;99.90;;;;;;6722426;88;20231;-80
2022/11/09 20:14:50;;;;;;;1999.90;999.90;;;12.70;99.90;;;;;;6722476;88;20205;-80
2022/11/09 20:24:50;;;;;;;1999.90;999.90;;;12.60;99.90;;;;;;6722561;88;20259;-79
2022/11/09 20:34:51;;;;;;;1999.90;999.90;;;12.40;99.90;;;;;;6721620;88;20730;-79
2022/11/09 20:44:53;;;;;;;1999.90;999.90;;;12.40;99.90;;;;;;6720402;88;20263;-79
2022/11/09 20:54:54;;;;;;;1999.90;999.90;;;12.20;99.90;;;;;;6722313;88;20181;-79
2022/11/09 21:04:54;;;;;;;1999.90;999.90;;;12.20;99.90;;;;;;6721601;88;20192;-81
2022/11/09 21:14:55;;;;;;;1999.90;999.90;;;12.10;99.90;;;;;;6740244;88;20196;-81
2022/11/09 21:35:15;;;;;;;1999.90;999.90;;;12.00;99.90;;;;;;6735247;88;20231;-78
2022/11/09 21:45:15;;;;;;;1999.90;999.90;;;12.10;99.90;;;;;;6732079;88;20202;-78
2022/11/09 21:55:16;;;;;;;1999.90;999.90;;;12.10;99.90;;;;;;6736272;88;20311;-79
2022/11/09 22:05:16;;;;;;;1999.90;999.90;;;12.20;99.90;;;;;;6735190;88;20196;-79
2022/11/09 22:25:36;;;;;;;1999.90;999.90;;;12.30;99.90;;;;;;6721100;88;20712;-80
2022/11/09 22:35:37;;;;;;;1999.90;999.90;;;12.20;99.90;;;;;;6732843;88;20199;-80
2022/11/09 22:45:37;;;;;;;1999.90;999.90;;;12.10;99.90;;;;;;6721809;88;20710;-79
2022/11/09 22:55:38;;;;;;;1999.90;999.90;;;12.00;99.90;;;;;;6719044;88;20664;-79
2022/11/09 23:05:38;;;;;;;1999.90;999.90;;;11.90;99.90;;;;;;6719242;88;20331;-77
2022/11/09 23:15:39;;;;;;;1999.90;999.90;;;11.70;99.90;;;;;;6715171;88;20193;-78
2022/11/09 23:25:55;;;;;;;1999.90;999.90;;;11.50;99.90;;;;;;6720454;88;20189;-79
2022/11/09 23:35:56;;;;;;;;;;;11.30;99.90;;;;;;6719818;88;20202;-79
2022/11/09 23:46:04;;;;;;;1999.90;999.90;;;11.30;99.90;;;;;;6718576;88;20542;-79
2022/11/09 23:56:07;;;;;;;1999.90;999.90;;;11.30;99.90;;;;;;6722600;88;20341;-78
